Terminal Aerodrome Forecast
Issued by NWS Lake Charles, LA

Current Version | Previous Version | Text Only | Print | Product List | Glossary On
Versions: 1 2 3 4 5 6 7 8 9 10 11 12 13 14 15 16 17 18 19 20 21
000
FTUS44 KLCH 180520
TAFLCH
TAF
KLCH 180520Z 1806/1906 VRB03KT 1/2SM FG VCSH OVC003
      TEMPO 1811/1815 5SM -RA OVC008
     FM181500 08005KT 6SM -RA BR BKN007 OVC015
     FM190000 12004KT 3SM BR OVC003=

USA.gov is the U.S. government's official web portal to all federal, state and local government web resources and services.